sensor_id;sensor_type;location;lat;lon;timestamp;pressure;altitude;pressure_sealevel;temperature;humidity
10706;BME280;5404;42.656;23.336;2022-10-16T00:00:39;95560.31;;;8.62;100.00
10706;BME280;5404;42.656;23.336;2022-10-16T00:03:05;95571.75;;;8.63;100.00
10706;BME280;5404;42.656;23.336;2022-10-16T00:05:41;95562.44;;;8.70;100.00
10706;BME280;5404;42.656;23.336;2022-10-16T00:08:07;95575.22;;;8.68;100.00
10706;BME280;5404;42.656;23.336;2022-10-16T00:10:33;95561.41;;;8.66;100.00
10706;BME280;5404;42.656;23.336;2022-10-16T00:13:00;95575.44;;;8.62;100.00
10706;BME280;5404;42.656;23.336;2022-10-16T00:15:26;95572.78;;;8.52;100.00
10706;BME280;5404;42.656;23.336;2022-10-16T00:17:52;95568.25;;;8.42;100.00
10706;BME280;5404;42.656;23.336;2022-10-16T00:20:18;95585.28;;;8.51;100.00
10706;BME280;5404;42.656;23.336;2022-10-16T00:22:44;95574.59;;;8.36;100.00
10706;BME280;5404;42.656;23.336;2022-10-16T00:25:10;95568.25;;;8.42;100.00
10706;BME280;5404;42.656;23.336;2022-10-16T00:27:35;95581.00;;;8.40;100.00
10706;BME280;5404;42.656;23.336;2022-10-16T00:30:00;95586.81;;;8.27;100.00
10706;BME280;5404;42.656;23.336;2022-10-16T00:32:26;95589.94;;;8.24;100.00
10706;BME280;5404;42.656;23.336;2022-10-16T00:34:52;95587.50;;;8.17;100.00
10706;BME280;5404;42.656;23.336;2022-10-16T00:37:20;95583.47;;;8.05;100.00
10706;BME280;5404;42.656;23.336;2022-10-16T00:39:45;95591.72;;;8.08;100.00
10706;BME280;5404;42.656;23.336;2022-10-16T00:42:16;95586.09;;;7.95;100.00
10706;BME280;5404;42.656;23.336;2022-10-16T00:44:50;95595.97;;;8.04;100.00
10706;BME280;5404;42.656;23.336;2022-10-16T00:47:30;95588.25;;;7.98;100.00
10706;BME280;5404;42.656;23.336;2022-10-16T00:50:16;95592.47;;;7.99;100.00
10706;BME280;5404;42.656;23.336;2022-10-16T00:52:46;95583.44;;;7.95;100.00
10706;BME280;5404;42.656;23.336;2022-10-16T00:55:13;95584.00;;;8.02;100.00
10706;BME280;5404;42.656;23.336;2022-10-16T00:57:39;95588.25;;;8.03;100.00
10706;BME280;5404;42.656;23.336;2022-10-16T01:00:07;95591.44;;;8.05;100.00
10706;BME280;5404;42.656;23.336;2022-10-16T01:02:33;95587.69;;;7.96;100.00
10706;BME280;5404;42.656;23.336;2022-10-16T01:04:59;95598.88;;;8.03;100.00
10706;BME280;5404;42.656;23.336;2022-10-16T01:07:51;95608.16;;;8.05;100.00
10706;BME280;5404;42.656;23.336;2022-10-16T01:10:35;95606.31;;;8.01;100.00
10706;BME280;5404;42.656;23.336;2022-10-16T01:13:14;95608.69;;;8.02;100.00
10706;BME280;5404;42.656;23.336;2022-10-16T01:16:16;95595.38;;;7.92;100.00
10706;BME280;5404;42.656;23.336;2022-10-16T01:18:46;95600.66;;;7.87;100.00
10706;BME280;5404;42.656;23.336;2022-10-16T01:21:24;95599.88;;;7.92;100.00
10706;BME280;5404;42.656;23.336;2022-10-16T01:24:08;95590.63;;;7.94;100.00
10706;BME280;5404;42.656;23.336;2022-10-16T01:27:09;95600.13;;;7.85;100.00
10706;BME280;5404;42.656;23.336;2022-10-16T01:34:48;95591.91;;;7.92;100.00
10706;BME280;5404;42.656;23.336;2022-10-16T01:37:26;95586.59;;;7.87;100.00
10706;BME280;5404;42.656;23.336;2022-10-16T01:39:58;95597.72;;;7.84;100.00
10706;BME280;5404;42.656;23.336;2022-10-16T01:42:30;95591.84;;;7.77;100.00
10706;BME280;5404;42.656;23.336;2022-10-16T01:44:58;95582.22;;;7.66;100.00
10706;BME280;5404;42.656;23.336;2022-10-16T01:47:25;95590.16;;;7.61;100.00
10706;BME280;5404;42.656;23.336;2022-10-16T01:49:52;95586.19;;;7.58;100.00
10706;BME280;5404;42.656;23.336;2022-10-16T01:52:21;95601.03;;;7.59;100.00
10706;BME280;5404;42.656;23.336;2022-10-16T01:54:50;95592.75;;;7.51;100.00
10706;BME280;5404;42.656;23.336;2022-10-16T01:57:19;95601.19;;;7.43;100.00
10706;BME280;5404;42.656;23.336;2022-10-16T01:59:49;95587.84;;;7.33;100.00
10706;BME280;5404;42.656;23.336;2022-10-16T02:02:17;95602.16;;;7.32;100.00
10706;BME280;5404;42.656;23.336;2022-10-16T02:04:46;95595.22;;;7.26;100.00
10706;BME280;5404;42.656;23.336;2022-10-16T02:07:14;95602.09;;;7.22;100.00
10706;BME280;5404;42.656;23.336;2022-10-16T02:09:41;95600.97;;;7.18;100.00
10706;BME280;5404;42.656;23.336;2022-10-16T02:12:25;95613.09;;;7.08;100.00
10706;BME280;5404;42.656;23.336;2022-10-16T02:14:52;95597.88;;;6.94;100.00
10706;BME280;5404;42.656;23.336;2022-10-16T02:17:20;95616.94;;;6.91;100.00
10706;BME280;5404;42.656;23.336;2022-10-16T02:19:48;95617.22;;;6.94;100.00
10706;BME280;5404;42.656;23.336;2022-10-16T02:22:30;95622.78;;;6.93;100.00
10706;BME280;5404;42.656;23.336;2022-10-16T02:25:10;95610.78;;;6.85;100.00
10706;BME280;5404;42.656;23.336;2022-10-16T02:28:08;95631.94;;;6.80;100.00
10706;BME280;5404;42.656;23.336;2022-10-16T02:33:06;95640.22;;;6.89;100.00
10706;BME280;5404;42.656;23.336;2022-10-16T02:35:35;95631.88;;;6.75;100.00
10706;BME280;5404;42.656;23.336;2022-10-16T02:38:01;95628.97;;;6.77;100.00
10706;BME280;5404;42.656;23.336;2022-10-16T02:40:28;95646.47;;;6.78;100.00
10706;BME280;5404;42.656;23.336;2022-10-16T02:42:54;95642.56;;;6.85;100.00
10706;BME280;5404;42.656;23.336;2022-10-16T02:45:20;95645.72;;;6.82;100.00
10706;BME280;5404;42.656;23.336;2022-10-16T02:47:46;95637.81;;;6.87;100.00
10706;BME280;5404;42.656;23.336;2022-10-16T02:50:11;95644.19;;;6.91;100.00
10706;BME280;5404;42.656;23.336;2022-10-16T02:52:37;95657.22;;;6.93;100.00
10706;BME280;5404;42.656;23.336;2022-10-16T02:55:03;95637.53;;;6.84;100.00
10706;BME280;5404;42.656;23.336;2022-10-16T02:57:28;95651.56;;;6.84;100.00
10706;BME280;5404;42.656;23.336;2022-10-16T02:59:54;95652.31;;;6.80;100.00
10706;BME280;5404;42.656;23.336;2022-10-16T03:02:19;95653.13;;;6.80;100.00
10706;BME280;5404;42.656;23.336;2022-10-16T03:04:45;95660.50;;;6.78;100.00
10706;BME280;5404;42.656;23.336;2022-10-16T03:07:11;95650.47;;;6.80;100.00
10706;BME280;5404;42.656;23.336;2022-10-16T03:09:36;95649.34;;;6.76;100.00
10706;BME280;5404;42.656;23.336;2022-10-16T03:12:02;95655.22;;;6.78;100.00
10706;BME280;5404;42.656;23.336;2022-10-16T03:14:28;95649.31;;;6.71;100.00
10706;BME280;5404;42.656;23.336;2022-10-16T03:16:53;95655.06;;;6.63;100.00
10706;BME280;5404;42.656;23.336;2022-10-16T03:19:19;95655.63;;;6.65;100.00
10706;BME280;5404;42.656;23.336;2022-10-16T03:21:45;95658.25;;;6.65;100.00
10706;BME280;5404;42.656;23.336;2022-10-16T03:24:11;95657.97;;;6.62;100.00
10706;BME280;5404;42.656;23.336;2022-10-16T03:26:37;95661.63;;;6.61;100.00
10706;BME280;5404;42.656;23.336;2022-10-16T03:29:02;95663.72;;;6.59;100.00
10706;BME280;5404;42.656;23.336;2022-10-16T03:31:29;95669.84;;;6.59;100.00
10706;BME280;5404;42.656;23.336;2022-10-16T03:33:54;95660.59;;;6.62;100.00
10706;BME280;5404;42.656;23.336;2022-10-16T03:36:20;95673.69;;;6.73;100.00
10706;BME280;5404;42.656;23.336;2022-10-16T03:38:45;95674.75;;;6.72;100.00
10706;BME280;5404;42.656;23.336;2022-10-16T03:41:12;95675.19;;;6.64;100.00
10706;BME280;5404;42.656;23.336;2022-10-16T03:43:37;95673.94;;;6.72;100.00
10706;BME280;5404;42.656;23.336;2022-10-16T03:46:03;95664.59;;;6.64;100.00
10706;BME280;5404;42.656;23.336;2022-10-16T03:48:29;95673.16;;;6.71;100.00
10706;BME280;5404;42.656;23.336;2022-10-16T03:50:55;95666.56;;;6.74;100.00
10706;BME280;5404;42.656;23.336;2022-10-16T03:53:21;95661.22;;;6.69;100.00
10706;BME280;5404;42.656;23.336;2022-10-16T03:55:46;95668.59;;;6.67;100.00
10706;BME280;5404;42.656;23.336;2022-10-16T03:58:12;95664.44;;;6.76;100.00
10706;BME280;5404;42.656;23.336;2022-10-16T04:00:42;95654.91;;;6.75;100.00
10706;BME280;5404;42.656;23.336;2022-10-16T04:03:08;95668.50;;;6.83;100.00
10706;BME280;5404;42.656;23.336;2022-10-16T04:05:34;95674.31;;;6.80;100.00
10706;BME280;5404;42.656;23.336;2022-10-16T04:08:00;95664.00;;;6.84;100.00
10706;BME280;5404;42.656;23.336;2022-10-16T04:10:25;95671.16;;;6.83;100.00
10706;BME280;5404;42.656;23.336;2022-10-16T04:12:51;95670.34;;;6.83;100.00
10706;BME280;5404;42.656;23.336;2022-10-16T04:15:17;95659.09;;;6.71;100.00
10706;BME280;5404;42.656;23.336;2022-10-16T04:17:42;95672.34;;;6.71;100.00
10706;BME280;5404;42.656;23.336;2022-10-16T04:20:09;95671.19;;;6.62;100.00
10706;BME280;5404;42.656;23.336;2022-10-16T04:22:35;95671.88;;;6.52;100.00
10706;BME280;5404;42.656;23.336;2022-10-16T04:25:00;95666.56;;;6.52;100.00
10706;BME280;5404;42.656;23.336;2022-10-16T04:27:25;95668.84;;;6.44;100.00
10706;BME280;5404;42.656;23.336;2022-10-16T04:29:51;95676.56;;;6.45;100.00
10706;BME280;5404;42.656;23.336;2022-10-16T04:32:16;95667.56;;;6.46;100.00
10706;BME280;5404;42.656;23.336;2022-10-16T04:34:42;95681.53;;;6.42;100.00
10706;BME280;5404;42.656;23.336;2022-10-16T04:37:07;95679.63;;;6.37;100.00
10706;BME280;5404;42.656;23.336;2022-10-16T04:39:33;95678.34;;;6.40;100.00
10706;BME280;5404;42.656;23.336;2022-10-16T04:41:58;95683.66;;;6.40;100.00
10706;BME280;5404;42.656;23.336;2022-10-16T04:44:24;95676.44;;;6.35;100.00
10706;BME280;5404;42.656;23.336;2022-10-16T04:46:52;95687.22;;;6.29;100.00
10706;BME280;5404;42.656;23.336;2022-10-16T04:49:18;95680.84;;;6.30;100.00
10706;BME280;5404;42.656;23.336;2022-10-16T04:51:44;95680.59;;;6.31;100.00
10706;BME280;5404;42.656;23.336;2022-10-16T04:54:09;95693.44;;;6.39;100.00
10706;BME280;5404;42.656;23.336;2022-10-16T04:56:35;95698.47;;;6.41;100.00
10706;BME280;5404;42.656;23.336;2022-10-16T04:59:07;95693.44;;;6.39;100.00
10706;BME280;5404;42.656;23.336;2022-10-16T05:01:33;95692.81;;;6.32;100.00
10706;BME280;5404;42.656;23.336;2022-10-16T05:04:00;95703.97;;;6.34;100.00
10706;BME280;5404;42.656;23.336;2022-10-16T05:06:25;95709.06;;;6.41;100.00
10706;BME280;5404;42.656;23.336;2022-10-16T05:08:52;95704.25;;;6.38;100.00
10706;BME280;5404;42.656;23.336;2022-10-16T05:11:18;95705.97;;;6.49;100.00
10706;BME280;5404;42.656;23.336;2022-10-16T05:13:43;95707.28;;;6.46;100.00
10706;BME280;5404;42.656;23.336;2022-10-16T05:16:08;95707.84;;;6.48;100.00
10706;BME280;5404;42.656;23.336;2022-10-16T05:18:34;95712.56;;;6.68;100.00
10706;BME280;5404;42.656;23.336;2022-10-16T05:20:59;95720.06;;;6.76;100.00
10706;BME280;5404;42.656;23.336;2022-10-16T05:23:25;95716.94;;;6.79;100.00
10706;BME280;5404;42.656;23.336;2022-10-16T05:25:55;95728.91;;;6.86;100.00
10706;BME280;5404;42.656;23.336;2022-10-16T05:28:27;95714.94;;;6.91;100.00
10706;BME280;5404;42.656;23.336;2022-10-16T05:30:53;95717.66;;;6.96;100.00
10706;BME280;5404;42.656;23.336;2022-10-16T05:33:23;95717.34;;;6.92;100.00
10706;BME280;5404;42.656;23.336;2022-10-16T05:35:50;95710.56;;;7.01;100.00
10706;BME280;5404;42.656;23.336;2022-10-16T05:38:16;95714.78;;;7.02;100.00
10706;BME280;5404;42.656;23.336;2022-10-16T05:40:43;95717.59;;;7.18;100.00
10706;BME280;5404;42.656;23.336;2022-10-16T05:43:09;95712.28;;;7.18;100.00
10706;BME280;5404;42.656;23.336;2022-10-16T05:45:34;95706.56;;;7.26;100.00
10706;BME280;5404;42.656;23.336;2022-10-16T05:48:00;95724.97;;;7.42;100.00
10706;BME280;5404;42.656;23.336;2022-10-16T05:50:26;95730.13;;;7.54;100.00
10706;BME280;5404;42.656;23.336;2022-10-16T05:52:51;95730.97;;;7.59;100.00
10706;BME280;5404;42.656;23.336;2022-10-16T05:55:17;95738.16;;;7.64;100.00
10706;BME280;5404;42.656;23.336;2022-10-16T05:57:43;95739.59;;;7.76;100.00
10706;BME280;5404;42.656;23.336;2022-10-16T06:00:10;95731.97;;;7.85;100.00
10706;BME280;5404;42.656;23.336;2022-10-16T06:02:35;95742.16;;;7.98;100.00
10706;BME280;5404;42.656;23.336;2022-10-16T06:05:01;95750.75;;;8.15;100.00
10706;BME280;5404;42.656;23.336;2022-10-16T06:07:26;95752.13;;;8.22;100.00
10706;BME280;5404;42.656;23.336;2022-10-16T06:09:53;95744.22;;;8.27;100.00
10706;BME280;5404;42.656;23.336;2022-10-16T06:12:20;95738.16;;;8.32;100.00
10706;BME280;5404;42.656;23.336;2022-10-16T06:14:46;95751.78;;;8.51;100.00
10706;BME280;5404;42.656;23.336;2022-10-16T06:17:15;95751.81;;;8.56;100.00
10706;BME280;5404;42.656;23.336;2022-10-16T06:19:41;95745.75;;;8.65;100.00
10706;BME280;5404;42.656;23.336;2022-10-16T06:22:07;95743.09;;;8.70;100.00
10706;BME280;5404;42.656;23.336;2022-10-16T06:24:32;95741.00;;;8.77;100.00
10706;BME280;5404;42.656;23.336;2022-10-16T06:26:58;95748.25;;;8.92;100.00
10706;BME280;5404;42.656;23.336;2022-10-16T06:29:23;95737.91;;;9.00;100.00
10706;BME280;5404;42.656;23.336;2022-10-16T06:31:49;95737.41;;;9.13;100.00
10706;BME280;5404;42.656;23.336;2022-10-16T06:34:14;95729.22;;;9.20;100.00
10706;BME280;5404;42.656;23.336;2022-10-16T06:36:40;95743.03;;;9.27;100.00
10706;BME280;5404;42.656;23.336;2022-10-16T06:39:06;95734.28;;;9.31;100.00
10706;BME280;5404;42.656;23.336;2022-10-16T06:41:33;95734.00;;;9.38;100.00
10706;BME280;5404;42.656;23.336;2022-10-16T06:44:01;95734.84;;;9.49;100.00
10706;BME280;5404;42.656;23.336;2022-10-16T06:46:29;95741.50;;;9.66;100.00
10706;BME280;5404;42.656;23.336;2022-10-16T06:48:55;95737.22;;;9.75;100.00
10706;BME280;5404;42.656;23.336;2022-10-16T06:51:22;95735.09;;;9.77;100.00
10706;BME280;5404;42.656;23.336;2022-10-16T06:53:50;95750.00;;;9.98;100.00
10706;BME280;5404;42.656;23.336;2022-10-16T06:56:17;95744.41;;;10.05;100.00
10706;BME280;5404;42.656;23.336;2022-10-16T06:58:44;95745.22;;;10.20;100.00
10706;BME280;5404;42.656;23.336;2022-10-16T07:01:12;95750.25;;;10.32;100.00
10706;BME280;5404;42.656;23.336;2022-10-16T07:03:39;95745.72;;;10.37;100.00
10706;BME280;5404;42.656;23.336;2022-10-16T07:06:06;95743.59;;;10.34;100.00
10706;BME280;5404;42.656;23.336;2022-10-16T07:08:33;95738.53;;;10.43;100.00
10706;BME280;5404;42.656;23.336;2022-10-16T07:11:14;95735.56;;;10.49;100.00
10706;BME280;5404;42.656;23.336;2022-10-16T07:13:41;95741.16;;;10.58;100.00
10706;BME280;5404;42.656;23.336;2022-10-16T07:16:18;95744.06;;;10.62;100.00
10706;BME280;5404;42.656;23.336;2022-10-16T07:18:45;95727.50;;;10.75;100.00
10706;BME280;5404;42.656;23.336;2022-10-16T07:21:21;95742.88;;;10.98;100.00
10706;BME280;5404;42.656;23.336;2022-10-16T07:23:51;95729.25;;;10.99;100.00
10706;BME280;5404;42.656;23.336;2022-10-16T07:26:17;95724.41;;;11.11;100.00
10706;BME280;5404;42.656;23.336;2022-10-16T07:28:43;95729.44;;;11.23;100.00
10706;BME280;5404;42.656;23.336;2022-10-16T07:31:11;95735.47;;;11.33;100.00
10706;BME280;5404;42.656;23.336;2022-10-16T07:33:39;95734.91;;;11.41;100.00
10706;BME280;5404;42.656;23.336;2022-10-16T07:36:07;95741.78;;;11.47;100.00
10706;BME280;5404;42.656;23.336;2022-10-16T07:38:33;95742.06;;;11.46;100.00
10706;BME280;5404;42.656;23.336;2022-10-16T07:41:06;95740.19;;;11.51;100.00
10706;BME280;5404;42.656;23.336;2022-10-16T07:43:34;95735.84;;;11.60;100.00
10706;BME280;5404;42.656;23.336;2022-10-16T07:46:00;95739.81;;;11.63;100.00
10706;BME280;5404;42.656;23.336;2022-10-16T07:48:30;95737.44;;;11.66;100.00
10706;BME280;5404;42.656;23.336;2022-10-16T07:51:00;95743.84;;;11.65;100.00
10706;BME280;5404;42.656;23.336;2022-10-16T07:53:27;95737.91;;;11.73;100.00
10706;BME280;5404;42.656;23.336;2022-10-16T07:55:56;95727.75;;;11.76;100.00
10706;BME280;5404;42.656;23.336;2022-10-16T07:58:22;95732.16;;;11.95;100.00
10706;BME280;5404;42.656;23.336;2022-10-16T08:00:48;95734.25;;;11.98;100.00
10706;BME280;5404;42.656;23.336;2022-10-16T08:03:13;95731.72;;;12.12;100.00
10706;BME280;5404;42.656;23.336;2022-10-16T08:05:38;95732.44;;;12.22;100.00
10706;BME280;5404;42.656;23.336;2022-10-16T08:08:04;95737.16;;;12.30;100.00
10706;BME280;5404;42.656;23.336;2022-10-16T08:10:29;95722.34;;;12.43;100.00
10706;BME280;5404;42.656;23.336;2022-10-16T08:12:57;95729.97;;;12.54;100.00
10706;BME280;5404;42.656;23.336;2022-10-16T08:15:23;95730.72;;;12.60;100.00
10706;BME280;5404;42.656;23.336;2022-10-16T08:17:59;95722.28;;;12.71;100.00
10706;BME280;5404;42.656;23.336;2022-10-16T08:20:25;95725.41;;;12.78;100.00
10706;BME280;5404;42.656;23.336;2022-10-16T08:22:51;95720.09;;;12.97;100.00
10706;BME280;5404;42.656;23.336;2022-10-16T08:25:16;95691.25;;;12.94;100.00
10706;BME280;5404;42.656;23.336;2022-10-16T08:27:42;95691.59;;;13.11;100.00
10706;BME280;5404;42.656;23.336;2022-10-16T08:30:08;95702.97;;;13.40;100.00
10706;BME280;5404;42.656;23.336;2022-10-16T08:32:34;95698.97;;;14.07;100.00
10706;BME280;5404;42.656;23.336;2022-10-16T08:35:00;95684.81;;;15.29;100.00
10706;BME280;5404;42.656;23.336;2022-10-16T08:37:29;95662.13;;;18.46;100.00
10706;BME280;5404;42.656;23.336;2022-10-16T08:39:55;95655.31;;;20.31;100.00
10706;BME280;5404;42.656;23.336;2022-10-16T08:42:45;95658.88;;;21.28;99.37
10706;BME280;5404;42.656;23.336;2022-10-16T08:45:32;95650.63;;;23.37;79.72
10706;BME280;5404;42.656;23.336;2022-10-16T08:50:50;95658.28;;;26.18;61.54
10706;BME280;5404;42.656;23.336;2022-10-16T08:53:22;95656.38;;;28.07;50.32
10706;BME280;5404;42.656;23.336;2022-10-16T08:55:51;95659.50;;;28.06;44.58
10706;BME280;5404;42.656;23.336;2022-10-16T08:58:22;95673.59;;;26.96;46.63
10706;BME280;5404;42.656;23.336;2022-10-16T09:01:03;95672.53;;;26.67;45.51
10706;BME280;5404;42.656;23.336;2022-10-16T09:12:24;95666.56;;;26.95;39.01
10706;BME280;5404;42.656;23.336;2022-10-16T09:15:12;95661.56;;;28.30;38.68
10706;BME280;5404;42.656;23.336;2022-10-16T09:20:41;95656.66;;;29.44;34.85
10706;BME280;5404;42.656;23.336;2022-10-16T09:23:26;95664.69;;;30.32;35.50
10706;BME280;5404;42.656;23.336;2022-10-16T09:25:52;95658.41;;;30.35;32.39
10706;BME280;5404;42.656;23.336;2022-10-16T09:28:19;95661.84;;;28.07;35.15
10706;BME280;5404;42.656;23.336;2022-10-16T09:30:45;95665.28;;;29.50;34.82
10706;BME280;5404;42.656;23.336;2022-10-16T09:33:12;95664.06;;;28.70;34.37
10706;BME280;5404;42.656;23.336;2022-10-16T09:35:46;95666.41;;;29.88;32.57
10706;BME280;5404;42.656;23.336;2022-10-16T09:38:31;95668.41;;;29.66;33.09
10706;BME280;5404;42.656;23.336;2022-10-16T09:40:58;95639.34;;;30.69;32.44
10706;BME280;5404;42.656;23.336;2022-10-16T09:43:38;95659.38;;;31.35;31.49
10706;BME280;5404;42.656;23.336;2022-10-16T09:46:25;95662.50;;;30.82;31.32
10706;BME280;5404;42.656;23.336;2022-10-16T09:48:54;95657.69;;;30.07;31.85
10706;BME280;5404;42.656;23.336;2022-10-16T09:51:25;95649.44;;;30.14;31.96
10706;BME280;5404;42.656;23.336;2022-10-16T09:53:58;95651.53;;;30.71;31.31
10706;BME280;5404;42.656;23.336;2022-10-16T09:56:27;95648.88;;;27.94;33.37
10706;BME280;5404;42.656;23.336;2022-10-16T09:58:55;95655.00;;;28.55;32.29
10706;BME280;5404;42.656;23.336;2022-10-16T10:01:26;95652.75;;;27.89;34.05
10706;BME280;5404;42.656;23.336;2022-10-16T10:03:55;95643.81;;;27.99;34.16
10706;BME280;5404;42.656;23.336;2022-10-16T10:06:31;95647.22;;;28.72;34.36
10706;BME280;5404;42.656;23.336;2022-10-16T10:09:06;95641.34;;;28.84;33.65
10706;BME280;5404;42.656;23.336;2022-10-16T10:11:53;95630.38;;;29.43;32.60
10706;BME280;5404;42.656;23.336;2022-10-16T10:14:32;95638.22;;;28.92;33.05
10706;BME280;5404;42.656;23.336;2022-10-16T10:17:10;95636.63;;;28.67;32.98
10706;BME280;5404;42.656;23.336;2022-10-16T10:22:32;95639.75;;;29.77;32.56
10706;BME280;5404;42.656;23.336;2022-10-16T10:35:57;95626.59;;;27.99;32.43
10706;BME280;5404;42.656;23.336;2022-10-16T10:38:43;95623.09;;;28.05;33.40
10706;BME280;5404;42.656;23.336;2022-10-16T10:47:16;95613.97;;;27.19;33.20
10706;BME280;5404;42.656;23.336;2022-10-16T11:01:13;95597.56;;;30.88;28.80
10706;BME280;5404;42.656;23.336;2022-10-16T11:06:33;95584.38;;;28.17;30.62
10706;BME280;5404;42.656;23.336;2022-10-16T11:14:20;95584.41;;;28.28;30.62
10706;BME280;5404;42.656;23.336;2022-10-16T11:16:59;95584.72;;;26.76;31.20
10706;BME280;5404;42.656;23.336;2022-10-16T11:19:46;95580.06;;;26.39;30.28
10706;BME280;5404;42.656;23.336;2022-10-16T11:22:19;95583.81;;;25.91;31.70
10706;BME280;5404;42.656;23.336;2022-10-16T11:24:52;95577.53;;;25.87;31.99
10706;BME280;5404;42.656;23.336;2022-10-16T11:27:35;95581.38;;;25.83;32.12
10706;BME280;5404;42.656;23.336;2022-10-16T11:30:05;95573.94;;;26.13;32.19
10706;BME280;5404;42.656;23.336;2022-10-16T11:35:37;95574.00;;;25.54;32.79
10706;BME280;5404;42.656;23.336;2022-10-16T11:38:11;95579.63;;;23.42;36.54
10706;BME280;5404;42.656;23.336;2022-10-16T11:40:39;95580.63;;;24.10;36.03
10706;BME280;5404;42.656;23.336;2022-10-16T11:45:42;95577.00;;;24.25;34.39
10706;BME280;5404;42.656;23.336;2022-10-16T11:53:59;95576.66;;;22.81;39.23
10706;BME280;5404;42.656;23.336;2022-10-16T11:56:28;95566.59;;;23.51;38.04
10706;BME280;5404;42.656;23.336;2022-10-16T11:59:05;95560.88;;;22.24;41.16
10706;BME280;5404;42.656;23.336;2022-10-16T12:01:38;95575.88;;;21.63;44.71
10706;BME280;5404;42.656;23.336;2022-10-16T12:07:00;95577.47;;;20.16;48.49
10706;BME280;5404;42.656;23.336;2022-10-16T12:09:31;95560.25;;;19.88;55.16
10706;BME280;5404;42.656;23.336;2022-10-16T12:11:58;95567.56;;;19.54;64.75
10706;BME280;5404;42.656;23.336;2022-10-16T12:19:22;95582.41;;;19.28;68.89
10706;BME280;5404;42.656;23.336;2022-10-16T12:21:48;95572.28;;;18.96;68.47
10706;BME280;5404;42.656;23.336;2022-10-16T12:24:51;95579.63;;;18.95;71.36
10706;BME280;5404;42.656;23.336;2022-10-16T12:27:29;95582.56;;;19.23;64.62
10706;BME280;5404;42.656;23.336;2022-10-16T12:30:00;95580.06;;;19.18;60.04
10706;BME280;5404;42.656;23.336;2022-10-16T12:32:32;95577.78;;;19.28;55.94
10706;BME280;5404;42.656;23.336;2022-10-16T12:35:00;95573.91;;;19.58;54.49
10706;BME280;5404;42.656;23.336;2022-10-16T12:37:31;95577.69;;;19.78;58.22
10706;BME280;5404;42.656;23.336;2022-10-16T12:39:59;95584.56;;;19.76;61.20
10706;BME280;5404;42.656;23.336;2022-10-16T12:44:53;95578.50;;;20.23;62.83
10706;BME280;5404;42.656;23.336;2022-10-16T12:47:49;95571.78;;;19.97;62.73
10706;BME280;5404;42.656;23.336;2022-10-16T12:50:29;95579.59;;;19.45;64.10
10706;BME280;5404;42.656;23.336;2022-10-16T12:52:56;95583.28;;;19.40;68.16
10706;BME280;5404;42.656;23.336;2022-10-16T12:55:23;95577.94;;;19.32;67.48
10706;BME280;5404;42.656;23.336;2022-10-16T13:06:25;95592.09;;;20.15;59.96
10706;BME280;5404;42.656;23.336;2022-10-16T13:11:51;95586.53;;;19.66;63.49
10706;BME280;5404;42.656;23.336;2022-10-16T13:14:42;95597.28;;;19.75;63.39
10706;BME280;5404;42.656;23.336;2022-10-16T13:17:34;95590.22;;;19.83;60.54
10706;BME280;5404;42.656;23.336;2022-10-16T13:23:15;95595.34;;;20.08;59.26
10706;BME280;5404;42.656;23.336;2022-10-16T13:28:31;95580.31;;;20.55;56.99
10706;BME280;5404;42.656;23.336;2022-10-16T13:30:59;95575.94;;;20.75;58.95
10706;BME280;5404;42.656;23.336;2022-10-16T13:33:35;95585.50;;;20.48;59.36
10706;BME280;5404;42.656;23.336;2022-10-16T13:36:01;95589.00;;;20.49;59.23
10706;BME280;5404;42.656;23.336;2022-10-16T13:38:34;95589.81;;;20.49;57.99
10706;BME280;5404;42.656;23.336;2022-10-16T13:41:17;95582.34;;;20.34;58.23
10706;BME280;5404;42.656;23.336;2022-10-16T13:43:52;95594.53;;;20.40;57.49
10706;BME280;5404;42.656;23.336;2022-10-16T13:46:20;95594.44;;;20.73;55.09
10706;BME280;5404;42.656;23.336;2022-10-16T13:48:58;95583.81;;;20.92;53.72
10706;BME280;5404;42.656;23.336;2022-10-16T13:51:24;95587.09;;;20.98;53.35
10706;BME280;5404;42.656;23.336;2022-10-16T13:53:50;95588.69;;;20.99;53.56
10706;BME280;5404;42.656;23.336;2022-10-16T13:56:19;95588.53;;;20.95;55.55
10706;BME280;5404;42.656;23.336;2022-10-16T13:58:45;95593.50;;;20.93;55.57
10706;BME280;5404;42.656;23.336;2022-10-16T14:01:26;95589.00;;;21.09;57.20
10706;BME280;5404;42.656;23.336;2022-10-16T14:03:52;95586.53;;;20.92;59.09
10706;BME280;5404;42.656;23.336;2022-10-16T14:06:21;95596.34;;;20.84;60.83
10706;BME280;5404;42.656;23.336;2022-10-16T14:11:25;95602.44;;;20.57;63.49
10706;BME280;5404;42.656;23.336;2022-10-16T14:13:51;95605.47;;;20.44;63.11
10706;BME280;5404;42.656;23.336;2022-10-16T14:16:23;95605.38;;;20.52;63.23
10706;BME280;5404;42.656;23.336;2022-10-16T14:18:59;95603.53;;;20.20;67.66
10706;BME280;5404;42.656;23.336;2022-10-16T14:21:26;95601.97;;;20.31;64.52
10706;BME280;5404;42.656;23.336;2022-10-16T14:23:53;95609.84;;;20.36;65.17
10706;BME280;5404;42.656;23.336;2022-10-16T14:26:22;95601.19;;;19.98;61.85
10706;BME280;5404;42.656;23.336;2022-10-16T14:29:00;95616.22;;;19.54;64.35
10706;BME280;5404;42.656;23.336;2022-10-16T14:31:29;95616.44;;;19.49;64.21
10706;BME280;5404;42.656;23.336;2022-10-16T14:33:55;95606.03;;;19.39;63.28
10706;BME280;5404;42.656;23.336;2022-10-16T14:36:22;95606.63;;;18.95;64.98
10706;BME280;5404;42.656;23.336;2022-10-16T14:39:17;95619.25;;;18.83;65.42
10706;BME280;5404;42.656;23.336;2022-10-16T14:41:48;95622.47;;;18.76;67.08
10706;BME280;5404;42.656;23.336;2022-10-16T14:44:15;95622.84;;;18.57;67.89
10706;BME280;5404;42.656;23.336;2022-10-16T14:46:43;95618.25;;;18.58;68.53
10706;BME280;5404;42.656;23.336;2022-10-16T14:51:35;95621.84;;;18.24;72.71
10706;BME280;5404;42.656;23.336;2022-10-16T14:54:02;95630.31;;;17.97;73.97
10706;BME280;5404;42.656;23.336;2022-10-16T14:59:21;95636.38;;;17.86;75.83
10706;BME280;5404;42.656;23.336;2022-10-16T15:01:49;95638.00;;;17.70;78.37